Time;durP1;ratioP1;P1;durP2;ratioP2;P2;SDS_P1;SDS_P2;PMS_P1;PMS_P2;Temp;Humidity;BMP_temperature;BMP_pressure;BME280_temperature;BME280_humidity;BME280_pressure;Samples;Min_cycle;Max_cycle;Signal;HPM_P1;HPM_P2
2023/04/05 00:02:18;;;;;;;0.60;0.60;;;;;;;5.87;100.00;98728.63;5015510;28;20241;-64
2023/04/05 00:04:50;;;;;;;0.50;0.50;;;;;;;5.74;100.00;98711.94;5032286;28;20209;-64
2023/04/05 00:07:17;;;;;;;0.60;0.60;;;;;;;5.89;100.00;98729.44;5031223;28;20198;-64
2023/04/05 00:09:45;;;;;;;0.50;0.50;;;;;;;5.89;100.00;98746.41;5031630;28;20201;-64
2023/04/05 00:12:12;;;;;;;0.63;0.63;;;;;;;5.84;100.00;98746.47;5031932;28;20201;-64
2023/04/05 00:14:38;;;;;;;1.47;1.47;;;;;;;5.71;100.00;98722.19;5031943;28;20788;-64
2023/04/05 00:17:07;;;;;;;0.70;0.70;;;;;;;5.82;100.00;98745.66;5031823;28;20208;-64
2023/04/05 00:19:35;;;;;;;0.70;0.70;;;;;;;5.79;100.00;98741.47;5031872;28;20205;-64
2023/04/05 00:22:02;;;;;;;0.80;0.80;;;;;;;5.77;100.00;98752.56;5031723;28;20197;-64
2023/04/05 00:24:29;;;;;;;0.60;0.60;;;;;;;5.76;100.00;98745.78;5031722;28;20236;-64
2023/04/05 00:26:56;;;;;;;1.37;1.37;;;;;;;5.76;100.00;98744.09;5031949;28;20209;-64
2023/04/05 00:29:23;;;;;;;0.60;0.60;;;;;;;5.74;100.00;98752.63;5030432;28;20201;-64
2023/04/05 00:31:50;;;;;;;0.60;0.60;;;;;;;5.79;100.00;98743.19;5030533;28;20669;-64
2023/04/05 00:34:18;;;;;;;0.60;0.60;;;;;;;5.70;100.00;98735.75;5031493;28;20222;-64
2023/04/05 00:36:45;;;;;;;0.70;0.70;;;;;;;5.70;100.00;98741.69;5031467;28;20197;-64
2023/04/05 00:39:11;;;;;;;0.70;0.70;;;;;;;5.70;100.00;98740.84;5031234;28;20197;-63
2023/04/05 00:41:39;;;;;;;0.67;0.67;;;;;;;5.69;100.00;98736.63;5031086;28;20204;-64
2023/04/05 00:44:06;;;;;;;0.60;0.60;;;;;;;5.65;100.00;98747.75;5031538;28;20763;-64
2023/04/05 00:46:35;;;;;;;0.67;0.67;;;;;;;5.69;100.00;98744.25;5031161;28;20259;-64
2023/04/05 00:49:02;;;;;;;0.70;0.70;;;;;;;5.62;100.00;98746.06;5031419;28;20197;-64
2023/04/05 00:51:32;;;;;;;0.60;0.60;;;;;;;5.62;100.00;98742.72;5030931;28;20231;-64
2023/04/05 00:54:00;;;;;;;0.60;0.60;;;;;;;5.62;100.00;98758.78;5030937;28;20664;-64
2023/04/05 00:56:28;;;;;;;0.60;0.60;;;;;;;5.60;100.00;98744.44;5030946;28;20201;-64
2023/04/05 00:58:55;;;;;;;0.63;0.63;;;;;;;5.60;100.00;98752.06;5031053;28;20221;-64
2023/04/05 01:01:23;;;;;;;0.60;0.60;;;;;;;5.55;100.00;98744.56;5030655;28;20214;-63
2023/04/05 01:03:53;;;;;;;0.57;0.57;;;;;;;5.62;100.00;98747.81;5030729;28;20224;-64
2023/04/05 01:06:43;;;;;;;0.60;0.60;;;;;;;5.60;100.00;98749.53;5030841;28;20232;-63
2023/04/05 01:09:17;;;;;;;1.60;1.43;;;;;;;5.58;100.00;98756.34;5030413;28;20214;-64
2023/04/05 01:11:47;;;;;;;0.70;0.70;;;;;;;5.55;100.00;98746.25;5029856;28;20208;-64
2023/04/05 01:14:14;;;;;;;1.00;1.00;;;;;;;5.54;100.00;98754.72;5031079;28;20213;-64
2023/04/05 01:16:41;;;;;;;0.60;0.60;;;;;;;5.51;100.00;98753.09;5030592;28;20206;-64
2023/04/05 01:19:08;;;;;;;0.60;0.60;;;;;;;5.57;100.00;98749.59;5030465;28;20201;-64
2023/04/05 01:21:57;;;;;;;0.50;0.50;;;;;;;5.41;100.00;98723.66;5030788;28;20725;-64
2023/04/05 01:24:38;;;;;;;0.73;0.73;;;;;;;5.54;100.00;98747.13;5030910;28;20208;-64
2023/04/05 01:27:10;;;;;;;0.60;0.60;;;;;;;5.41;100.00;98732.97;5029762;28;20197;-64
2023/04/05 01:29:51;;;;;;;0.67;0.67;;;;;;;5.50;100.00;98755.66;5028512;28;20193;-63
2023/04/05 01:32:37;;;;;;;0.67;0.67;;;;;;;5.42;100.00;98747.38;5030583;28;20193;-64
2023/04/05 01:35:12;;;;;;;0.67;0.67;;;;;;;5.50;100.00;98763.28;5029861;28;20767;-64
2023/04/05 01:37:40;;;;;;;0.60;0.60;;;;;;;5.48;100.00;98759.94;5027652;28;20205;-63
2023/04/05 01:40:09;;;;;;;0.70;0.70;;;;;;;5.50;100.00;98758.19;5030219;28;20315;-64
2023/04/05 01:42:37;;;;;;;0.60;0.60;;;;;;;5.47;100.00;98760.81;5030643;28;20201;-63
2023/04/05 01:45:06;;;;;;;0.60;0.60;;;;;;;5.50;100.00;98763.28;5030342;28;20228;-64
2023/04/05 01:47:32;;;;;;;0.60;0.60;;;;;;;5.49;100.00;98766.72;5026701;28;20202;-64
2023/04/05 01:49:59;;;;;;;0.60;0.60;;;;;;;5.48;100.00;98765.03;5029816;28;20649;-64
2023/04/05 01:52:26;;;;;;;0.70;0.70;;;;;;;5.46;100.00;98766.78;5028733;28;20201;-64
2023/04/05 01:54:53;;;;;;;0.70;0.70;;;;;;;5.47;100.00;98776.06;5030102;28;20221;-64
2023/04/05 01:57:19;;;;;;;0.83;0.83;;;;;;;5.49;100.00;98774.34;5030537;28;20204;-64
2023/04/05 01:59:46;;;;;;;1.33;1.33;;;;;;;5.47;100.00;98778.59;5030349;28;20201;-63
2023/04/05 02:02:14;;;;;;;0.63;0.63;;;;;;;5.49;100.00;98782.81;5030500;28;20654;-63
2023/04/05 02:04:42;;;;;;;0.73;0.73;;;;;;;5.49;100.00;98770.09;5030306;28;20719;-64
2023/04/05 02:07:09;;;;;;;0.50;0.50;;;;;;;5.39;100.00;98760.13;5029822;28;20213;-64
2023/04/05 02:09:35;;;;;;;0.90;0.90;;;;;;;5.43;100.00;98764.28;5030298;28;20205;-64
2023/04/05 02:12:02;;;;;;;0.60;0.60;;;;;;;5.51;100.00;98775.13;5030030;28;20216;-63
2023/04/05 02:14:29;;;;;;;0.70;0.70;;;;;;;5.44;100.00;98768.50;5030171;28;20728;-64
2023/04/05 02:16:56;;;;;;;0.80;0.80;;;;;;;5.52;100.00;98781.91;5029912;28;20197;-63
2023/04/05 02:19:24;;;;;;;0.80;0.80;;;;;;;5.52;100.00;98779.38;5032251;28;20209;-63
2023/04/05 02:21:52;;;;;;;0.60;0.60;;;;;;;5.42;100.00;98770.25;5034274;28;20209;-64
2023/04/05 02:24:19;;;;;;;0.63;0.63;;;;;;;5.49;100.00;98787.06;5034022;28;20275;-64
2023/04/05 02:26:46;;;;;;;0.67;0.67;;;;;;;5.32;100.00;98764.50;5034331;28;20216;-64
2023/04/05 02:29:13;;;;;;;0.60;0.60;;;;;;;5.47;100.00;98773.50;5033412;28;20190;-64
2023/04/05 02:31:39;;;;;;;0.80;0.80;;;;;;;5.41;100.00;98789.72;5033916;28;20204;-64
2023/04/05 02:34:08;;;;;;;0.90;0.90;;;;;;;5.39;100.00;98795.72;5033747;28;20217;-63
2023/04/05 02:36:36;;;;;;;0.60;0.60;;;;;;;5.39;100.00;98795.72;5033400;28;20221;-64
2023/04/05 02:39:03;;;;;;;0.50;0.50;;;;;;;5.39;100.00;98803.34;5033571;28;20674;-64
2023/04/05 02:41:30;;;;;;;0.80;0.80;;;;;;;5.33;100.00;98795.84;5034117;28;20200;-63
2023/04/05 02:43:57;;;;;;;0.80;0.80;;;;;;;5.30;100.00;98795.00;5033704;28;20247;-63
2023/04/05 02:46:24;;;;;;;1.00;1.00;;;;;;;5.30;100.00;98801.78;5033435;28;20206;-63
2023/04/05 02:48:51;;;;;;;0.60;0.60;;;;;;;5.23;100.00;98798.53;5033153;28;20223;-64
2023/04/05 02:51:18;;;;;;;0.60;0.60;;;;;;;5.22;100.00;98789.25;5033902;28;20658;-64
2023/04/05 02:53:47;;;;;;;1.00;1.00;;;;;;;5.21;100.00;98794.34;5033689;28;20635;-64
2023/04/05 02:56:13;;;;;;;0.67;0.67;;;;;;;5.20;100.00;98790.97;5033681;28;20201;-64
2023/04/05 02:58:40;;;;;;;0.50;0.50;;;;;;;5.15;100.00;98802.91;5033790;28;20279;-63
2023/04/05 03:01:07;;;;;;;0.67;0.67;;;;;;;5.10;100.00;98793.72;5033518;28;20204;-64
2023/04/05 03:03:34;;;;;;;0.57;0.57;;;;;;;5.13;100.00;98798.75;5033098;28;20225;-63
2023/04/05 03:06:08;;;;;;;0.60;0.60;;;;;;;5.07;100.00;98786.97;5033847;28;20328;-64
2023/04/05 03:08:37;;;;;;;0.70;0.70;;;;;;;5.04;100.00;98798.91;5032288;28;20201;-63
2023/04/05 03:11:06;;;;;;;0.83;0.83;;;;;;;5.05;100.00;98796.31;5033334;28;20252;-63
2023/04/05 03:13:33;;;;;;;0.93;0.93;;;;;;;5.06;100.00;98797.16;5032580;28;20197;-63
2023/04/05 03:16:00;;;;;;;0.73;0.73;;;;;;;5.08;100.00;98796.28;5032984;28;20198;-64
2023/04/05 03:18:28;;;;;;;0.80;0.80;;;;;;;5.10;100.00;98799.63;5032323;28;20202;-63
2023/04/05 03:20:56;;;;;;;0.60;0.60;;;;;;;5.10;100.00;98804.72;5032795;28;20248;-64
2023/04/05 03:23:25;;;;;;;0.80;0.80;;;;;;;5.09;100.00;98807.28;5030783;28;20236;-64
2023/04/05 03:25:55;;;;;;;0.80;0.80;;;;;;;5.08;100.00;98803.88;5032425;28;20206;-63
2023/04/05 03:28:23;;;;;;;0.60;0.60;;;;;;;5.08;100.00;98803.03;5032498;28;20236;-64
2023/04/05 03:30:50;;;;;;;0.60;0.60;;;;;;;5.08;100.00;98808.13;5026215;28;20648;-64
2023/04/05 03:33:17;;;;;;;0.73;0.73;;;;;;;5.07;100.00;98804.75;5028667;28;20216;-64
2023/04/05 03:35:44;;;;;;;0.60;0.60;;;;;;;5.10;100.00;98809.81;5029747;28;20237;-64
2023/04/05 03:38:11;;;;;;;0.70;0.70;;;;;;;5.09;100.00;98810.66;5024267;28;20204;-64
2023/04/05 03:40:38;;;;;;;0.53;0.53;;;;;;;5.07;100.00;98814.91;5030640;28;20209;-64
2023/04/05 03:43:04;;;;;;;0.77;0.77;;;;;;;5.05;100.00;98814.09;5030172;28;20213;-65
2023/04/05 03:45:33;;;;;;;0.77;0.77;;;;;;;4.94;100.00;98795.69;5032076;28;20766;-64
2023/04/05 03:48:00;;;;;;;0.63;0.63;;;;;;;5.11;100.00;98815.69;5029668;28;20224;-64
2023/04/05 03:50:27;;;;;;;0.60;0.60;;;;;;;5.15;100.00;98824.94;5032130;28;20220;-63
2023/04/05 03:52:54;;;;;;;0.83;0.83;;;;;;;5.09;100.00;98828.44;5032418;28;20263;-63
2023/04/05 03:55:20;;;;;;;0.70;0.70;;;;;;;5.10;100.00;98830.13;5031993;28;20217;-63
2023/04/05 03:57:47;;;;;;;0.80;0.80;;;;;;;5.13;100.00;98831.75;5032001;28;20205;-63
2023/04/05 04:00:16;;;;;;;1.20;1.20;;;;;;;5.11;100.00;98830.94;5032359;28;20205;-64
2023/04/05 04:02:45;;;;;;;0.60;0.60;;;;;;;5.14;100.00;98839.34;5032047;28;20256;-64
2023/04/05 04:05:13;;;;;;;1.73;1.60;;;;;;;5.13;100.00;98827.53;5016894;28;20198;-63
2023/04/05 04:07:40;;;;;;;0.70;0.70;;;;;;;5.10;100.00;98834.38;5012434;28;20606;-64
2023/04/05 04:10:08;;;;;;;0.90;0.90;;;;;;;5.08;100.00;98831.00;5016945;28;20574;-64
2023/04/05 04:12:35;;;;;;;1.40;1.07;;;;;;;4.95;100.00;98820.19;5013374;28;20210;-63
2023/04/05 04:15:02;;;;;;;0.60;0.60;;;;;;;5.03;100.00;98840.41;5024678;28;20216;-63
2023/04/05 04:17:30;;;;;;;0.90;0.90;;;;;;;5.05;100.00;98836.97;5012755;28;20202;-63
2023/04/05 04:19:59;;;;;;;0.70;0.70;;;;;;;5.03;100.00;98833.63;5012423;28;20202;-63
2023/04/05 04:22:31;;;;;;;0.70;0.70;;;;;;;5.08;100.00;98857.22;5013173;28;20622;-63
2023/04/05 04:25:01;;;;;;;0.70;0.70;;;;;;;5.08;100.00;98857.22;5016507;28;20555;-63
2023/04/05 04:27:29;;;;;;;0.53;0.53;;;;;;;5.11;100.00;98866.50;5028318;28;20202;-63
2023/04/05 04:30:02;;;;;;;0.60;0.60;;;;;;;5.10;100.00;98864.84;5012349;28;20197;-64
2023/04/05 04:32:50;;;;;;;0.93;0.93;;;;;;;5.13;100.00;98873.25;5028468;28;20271;-63
2023/04/05 04:35:19;;;;;;;0.67;0.67;;;;;;;4.91;100.00;98838.88;5019652;28;20404;-63
2023/04/05 04:37:46;;;;;;;0.77;0.77;;;;;;;5.14;100.00;98866.44;5015076;28;20190;-63
2023/04/05 04:40:16;;;;;;;0.57;0.57;;;;;;;5.03;100.00;98856.50;5011837;28;20209;-63
2023/04/05 04:42:45;;;;;;;0.70;0.70;;;;;;;5.22;100.00;98874.78;5020105;28;20290;-64
2023/04/05 04:45:14;;;;;;;0.60;0.60;;;;;;;5.21;100.00;98863.78;5027516;28;20718;-63
2023/04/05 04:47:42;;;;;;;0.70;0.70;;;;;;;5.41;100.00;98881.22;5013918;28;20689;-62
2023/04/05 04:50:10;;;;;;;0.80;0.80;;;;;;;5.49;100.00;98883.66;5014839;28;20226;-63
2023/04/05 04:52:39;;;;;;;0.70;0.70;;;;;;;5.42;100.00;98859.19;5012814;28;20678;-62
2023/04/05 04:55:07;;;;;;;0.63;0.63;;;;;;;5.60;100.00;98887.66;5020044;28;20305;-62
2023/04/05 04:57:33;;;;;;;1.03;1.00;;;;;;;5.74;100.00;98885.69;5012531;28;20568;-63
2023/04/05 05:00:00;;;;;;;0.77;0.77;;;;;;;5.85;100.00;98893.09;5013946;28;20206;-64
2023/04/05 05:02:27;;;;;;;0.60;0.60;;;;;;;5.94;100.00;98887.91;5017222;28;20617;-64
2023/04/05 05:04:54;;;;;;;0.67;0.67;;;;;;;5.97;100.00;98898.00;5028336;28;20201;-64
2023/04/05 05:07:21;;;;;;;0.70;0.70;;;;;;;5.93;100.00;98896.38;5029010;28;20205;-64
2023/04/05 05:09:51;;;;;;;0.50;0.50;;;;;;;5.94;100.00;98898.06;5022324;28;20220;-65
2023/04/05 05:12:19;;;;;;;0.60;0.60;;;;;;;5.93;100.00;98906.56;5027865;28;20208;-65
2023/04/05 05:14:46;;;;;;;0.70;0.70;;;;;;;5.92;100.00;98909.13;5027257;28;20320;-64
2023/04/05 05:17:13;;;;;;;0.53;0.53;;;;;;;5.91;100.00;98902.38;5027795;28;20291;-64
2023/04/05 05:19:41;;;;;;;0.80;0.80;;;;;;;5.87;100.00;98904.13;5025810;28;20213;-63
2023/04/05 05:22:07;;;;;;;0.70;0.70;;;;;;;5.93;100.00;98904.03;5026097;28;20696;-64
2023/04/05 05:24:34;;;;;;;0.80;0.80;;;;;;;5.89;100.00;98904.94;5028075;28;20650;-64
2023/04/05 05:27:02;;;;;;;0.60;0.60;;;;;;;5.73;100.00;98888.25;5025561;28;20683;-64
2023/04/05 05:29:29;;;;;;;0.67;0.67;;;;;;;5.94;100.00;98910.78;5027108;28;20201;-64
2023/04/05 05:31:56;;;;;;;0.50;0.50;;;;;;;5.98;100.00;98903.94;5028090;28;20280;-64
2023/04/05 05:34:23;;;;;;;1.80;1.27;;;;;;;5.97;100.00;98913.28;5027894;28;20640;-64
2023/04/05 05:36:50;;;;;;;0.73;0.73;;;;;;;5.96;100.00;98906.50;5028075;28;20611;-64
2023/04/05 05:39:17;;;;;;;0.60;0.60;;;;;;;5.99;100.00;98911.53;5025885;28;20201;-64
2023/04/05 05:41:44;;;;;;;0.60;0.60;;;;;;;6.03;100.00;98913.16;5027027;28;20205;-64
2023/04/05 05:44:12;;;;;;;0.90;0.90;;;;;;;6.00;100.00;98913.22;5025864;28;20662;-64
2023/04/05 05:46:39;;;;;;;0.57;0.57;;;;;;;6.09;100.00;98913.03;5025492;28;20715;-64
2023/04/05 05:49:06;;;;;;;0.70;0.70;;;;;;;6.11;100.00;98905.34;5026008;28;20275;-64
2023/04/05 05:51:32;;;;;;;0.50;0.50;;;;;;;6.21;100.00;98917.84;5026553;28;20213;-65
2023/04/05 05:53:59;;;;;;;0.60;0.60;;;;;;;6.25;100.00;98918.63;5025309;28;20209;-65
2023/04/05 05:56:26;;;;;;;0.50;0.50;;;;;;;6.32;100.00;98923.59;5028177;28;20221;-66
2023/04/05 05:58:53;;;;;;;0.50;0.50;;;;;;;6.42;100.00;98925.94;5026021;28;20209;-63
2023/04/05 06:01:26;;;;;;;0.60;0.60;;;;;;;6.45;99.33;98920.78;5027426;28;20232;-63
2023/04/05 06:03:53;;;;;;;0.60;0.60;;;;;;;6.47;99.62;98924.09;5020080;28;20241;-63
2023/04/05 06:06:20;;;;;;;0.70;0.70;;;;;;;6.54;99.32;98910.38;5009897;28;20213;-63
2023/04/05 06:08:48;;;;;;;0.50;0.50;;;;;;;6.54;99.06;98915.47;5014434;28;20202;-63
2023/04/05 06:11:18;;;;;;;0.63;0.63;;;;;;;6.59;100.00;98918.78;5017371;28;20283;-63
2023/04/05 06:13:46;;;;;;;0.50;0.50;;;;;;;6.68;98.14;98914.31;5013094;28;20206;-63
2023/04/05 06:16:12;;;;;;;0.60;0.60;;;;;;;6.70;97.80;98927.84;5017294;28;20307;-63
2023/04/05 06:18:41;;;;;;;0.50;0.50;;;;;;;6.73;96.56;98926.94;5016309;28;20206;-64
2023/04/05 06:21:08;;;;;;;0.67;0.67;;;;;;;6.81;97.17;98930.16;5018597;28;20197;-63
2023/04/05 06:23:35;;;;;;;0.60;0.60;;;;;;;6.90;97.40;98929.09;5023881;28;20201;-64
2023/04/05 06:26:02;;;;;;;0.50;0.50;;;;;;;6.91;95.73;98926.53;5027585;28;20201;-63
2023/04/05 06:28:29;;;;;;;0.67;0.67;;;;;;;6.95;95.17;98929.84;5017419;28;20261;-64
2023/04/05 06:30:58;;;;;;;0.50;0.50;;;;;;;6.99;96.64;98929.72;5017733;28;20658;-63
2023/04/05 06:33:25;;;;;;;0.80;0.80;;;;;;;7.15;97.81;98931.03;5021988;28;20589;-64
2023/04/05 06:35:53;;;;;;;0.60;0.60;;;;;;;7.22;95.78;98937.66;5019808;28;20313;-63
2023/04/05 06:38:20;;;;;;;0.47;0.47;;;;;;;7.31;95.83;98932.34;5012134;28;20706;-64
2023/04/05 06:40:47;;;;;;;0.50;0.50;;;;;;;7.36;94.64;98938.19;5016483;28;20205;-64
2023/04/05 06:43:13;;;;;;;0.77;0.77;;;;;;;7.36;94.01;98945.84;5003412;28;20205;-64
2023/04/05 06:45:40;;;;;;;0.73;0.73;;;;;;;7.45;95.72;98942.22;5019466;28;20194;-64
2023/04/05 06:48:07;;;;;;;0.50;0.50;;;;;;;7.58;94.32;98946.13;5027812;28;20205;-64
2023/04/05 06:50:34;;;;;;;0.50;0.50;;;;;;;7.54;93.58;98928.38;5022399;28;21410;-63
2023/04/05 06:53:03;;;;;;;1.07;1.07;;;;;;;7.67;93.42;98950.16;5015790;28;20201;-66
2023/04/05 06:55:30;;;;;;;0.60;0.60;;;;;;;7.75;93.89;98949.09;5015006;28;20217;-66
2023/04/05 06:57:56;;;;;;;0.60;0.60;;;;;;;7.86;95.12;98951.34;5022667;28;20205;-66
2023/04/05 07:00:23;;;;;;;0.80;0.80;;;;;;;7.68;91.90;98937.38;5019954;28;20213;-65
2023/04/05 07:02:50;;;;;;;0.60;0.60;;;;;;;7.85;92.81;98954.78;5021029;28;20221;-65
2023/04/05 07:05:17;;;;;;;0.60;0.60;;;;;;;7.89;92.84;98961.47;5030110;28;20204;-63
2023/04/05 07:07:47;;;;;;;0.70;0.70;;;;;;;7.99;91.48;98973.13;5030470;28;20220;-63
2023/04/05 07:10:15;;;;;;;0.50;0.50;;;;;;;8.11;91.69;98977.88;5031583;28;20217;-64
2023/04/05 07:12:42;;;;;;;0.60;0.60;;;;;;;8.09;90.36;98979.66;5032100;28;20288;-63
2023/04/05 07:15:10;;;;;;;1.10;1.10;;;;;;;8.03;91.06;98984.94;5033141;28;20708;-63
2023/04/05 07:17:37;;;;;;;0.60;0.60;;;;;;;7.95;89.71;98976.63;5032157;28;20210;-63
2023/04/05 07:20:06;;;;;;;0.53;0.53;;;;;;;7.99;90.47;98988.44;5031712;28;20200;-63
2023/04/05 07:22:34;;;;;;;0.60;0.60;;;;;;;8.00;91.72;98974.78;5031764;28;20739;-63
2023/04/05 07:25:01;;;;;;;0.47;0.47;;;;;;;8.17;92.78;98987.97;5031117;28;20300;-63
2023/04/05 07:27:30;;;;;;;0.50;0.50;;;;;;;8.18;89.93;98993.88;5029884;28;20229;-63
2023/04/05 07:29:57;;;;;;;0.83;0.83;;;;;;;8.17;90.17;98982.84;5031709;28;20197;-64
2023/04/05 07:32:23;;;;;;;0.50;0.50;;;;;;;8.16;90.42;98983.72;5032057;28;20685;-64
2023/04/05 07:34:50;;;;;;;0.50;0.50;;;;;;;8.19;91.84;98990.44;5032291;28;20217;-64
2023/04/05 07:37:17;;;;;;;0.70;0.70;;;;;;;8.14;90.73;98992.31;5030896;28;20221;-64
2023/04/05 07:39:43;;;;;;;0.70;0.70;;;;;;;8.27;91.88;98997.00;5032022;28;20262;-65
2023/04/05 07:42:10;;;;;;;1.00;1.00;;;;;;;8.27;92.72;98988.53;5029320;28;20205;-64
2023/04/05 07:44:38;;;;;;;0.50;0.50;;;;;;;8.34;89.58;99006.22;5029144;28;20627;-65
2023/04/05 07:47:05;;;;;;;0.60;0.60;;;;;;;8.40;91.37;99000.13;5029441;28;20275;-64
2023/04/05 07:49:32;;;;;;;0.50;0.50;;;;;;;8.47;88.88;99005.88;5029095;28;20205;-64
2023/04/05 07:51:59;;;;;;;0.70;0.70;;;;;;;8.40;88.62;98995.03;5027721;28;20304;-64
2023/04/05 07:54:26;;;;;;;0.50;0.50;;;;;;;8.49;89.57;99014.34;5028220;28;20255;-64
2023/04/05 07:56:56;;;;;;;0.50;0.50;;;;;;;8.57;89.53;99017.50;5028829;28;20275;-64
2023/04/05 07:59:23;;;;;;;0.60;0.60;;;;;;;8.71;91.17;99015.41;5027553;28;20657;-64
2023/04/05 08:01:51;;;;;;;0.50;0.50;;;;;;;8.72;88.73;99022.22;5028805;28;20209;-64
2023/04/05 08:04:18;;;;;;;0.70;0.70;;;;;;;8.59;88.74;99003.84;5020215;28;20719;-64
2023/04/05 08:06:46;;;;;;;0.63;0.63;;;;;;;8.56;86.67;99021.81;5019411;28;20204;-64
2023/04/05 08:09:12;;;;;;;0.50;0.50;;;;;;;8.49;87.29;99024.56;5023234;28;20201;-64
2023/04/05 08:11:39;;;;;;;0.60;0.60;;;;;;;8.43;89.06;99010.25;5020678;28;20267;-64
2023/04/05 08:14:06;;;;;;;0.63;0.63;;;;;;;8.42;88.42;99024.75;5021216;28;20256;-64
2023/04/05 08:16:33;;;;;;;0.40;0.40;;;;;;;8.72;90.28;99022.22;5022539;28;20217;-64
2023/04/05 08:19:01;;;;;;;0.60;0.60;;;;;;;8.97;87.76;99020.59;5020275;28;20206;-64
2023/04/05 08:21:28;;;;;;;0.60;0.60;;;;;;;9.27;88.68;99031.63;5017593;28;20627;-65
2023/04/05 08:23:55;;;;;;;0.40;0.40;;;;;;;9.34;86.90;99035.66;5018025;28;20202;-65
2023/04/05 08:26:22;;;;;;;0.50;0.50;;;;;;;9.24;86.74;99022.31;5018714;28;20615;-64
2023/04/05 08:28:49;;;;;;;0.60;0.60;;;;;;;9.23;87.61;99025.78;5016087;28;20258;-64
2023/04/05 08:31:15;;;;;;;0.50;0.50;;;;;;;9.19;84.95;99028.47;5019855;28;20301;-64
2023/04/05 08:33:42;;;;;;;0.47;0.47;;;;;;;9.12;87.08;99037.19;5021072;28;20756;-64
2023/04/05 08:36:11;;;;;;;0.60;0.60;;;;;;;9.15;87.15;99034.53;5019787;28;20256;-63
2023/04/05 08:38:38;;;;;;;0.70;0.70;;;;;;;9.17;88.82;99037.91;5016318;28;20292;-64
2023/04/05 08:41:13;;;;;;;0.80;0.80;;;;;;;9.20;86.15;99032.69;5016699;28;20204;-64
2023/04/05 08:43:47;;;;;;;0.70;0.70;;;;;;;9.16;86.53;99031.94;5015310;28;20202;-64
2023/04/05 08:46:16;;;;;;;0.50;0.50;;;;;;;9.04;87.11;99019.53;5018301;28;20205;-64
2023/04/05 08:48:43;;;;;;;0.67;0.67;;;;;;;9.16;87.52;99039.63;5018014;28;20298;-64
2023/04/05 08:51:11;;;;;;;1.10;1.10;;;;;;;9.09;86.13;99029.63;5017289;28;20204;-64
2023/04/05 08:53:38;;;;;;;0.40;0.40;;;;;;;9.12;86.83;99043.16;5019832;28;20214;-65
2023/04/05 08:56:06;;;;;;;0.60;0.60;;;;;;;9.28;88.02;99044.34;5015771;28;20221;-64
2023/04/05 08:58:37;;;;;;;0.80;0.80;;;;;;;9.66;89.49;99040.59;5016641;28;20202;-63
2023/04/05 09:01:06;;;;;;;0.60;0.60;;;;;;;9.99;87.81;99048.91;5026390;28;20264;-63
2023/04/05 09:03:36;;;;;;;0.50;0.50;;;;;;;10.27;87.11;99044.56;5019486;28;20237;-64
2023/04/05 09:06:07;;;;;;;0.50;0.50;;;;;;;10.53;86.22;99044.47;5019214;28;20293;-64
2023/04/05 09:08:35;;;;;;;0.67;0.67;;;;;;;10.51;84.09;99053.09;5028283;28;20694;-64
2023/04/05 09:11:02;;;;;;;0.40;0.40;;;;;;;10.51;83.65;99059.06;5013675;28;20264;-64
2023/04/05 09:13:29;;;;;;;0.40;0.40;;;;;;;10.43;84.16;99055.97;5021826;28;20213;-63
2023/04/05 09:15:57;;;;;;;0.60;0.60;;;;;;;10.08;83.68;99038.34;5026611;28;20573;-64
2023/04/05 09:18:24;;;;;;;0.50;0.50;;;;;;;10.12;83.05;99067.25;5017474;28;20198;-64
2023/04/05 09:20:50;;;;;;;0.60;0.60;;;;;;;10.03;83.08;99066.69;5017520;28;20198;-64
2023/04/05 09:23:17;;;;;;;0.60;0.60;;;;;;;10.08;84.99;99069.06;5019213;28;20558;-64
2023/04/05 09:25:46;;;;;;;0.50;0.50;;;;;;;9.95;82.97;99053.28;5017972;28;20738;-63
2023/04/05 09:28:13;;;;;;;0.50;0.50;;;;;;;9.96;83.91;99064.38;5019800;28;20201;-64
2023/04/05 09:30:46;;;;;;;0.50;0.50;;;;;;;10.05;83.71;99073.47;5018788;28;20210;-63
2023/04/05 09:33:18;;;;;;;0.57;0.57;;;;;;;10.05;86.12;99069.19;5017992;28;20213;-63
2023/04/05 09:35:45;;;;;;;0.43;0.43;;;;;;;10.00;84.55;99066.78;5014679;28;20284;-68
2023/04/05 09:38:12;;;;;;;0.50;0.50;;;;;;;9.99;84.76;99075.34;5019098;28;20205;-63
2023/04/05 09:40:43;;;;;;;0.60;0.60;;;;;;;9.87;83.43;99069.78;5017607;28;20198;-63
2023/04/05 09:43:12;;;;;;;0.50;0.50;;;;;;;9.77;83.61;99065.84;5021467;28;20205;-63
2023/04/05 09:45:41;;;;;;;0.50;0.50;;;;;;;9.77;84.08;99068.41;5021587;28;20304;-63
2023/04/05 09:48:09;;;;;;;0.60;0.60;;;;;;;9.58;83.83;99031.50;5013843;28;20206;-63
2023/04/05 09:50:36;;;;;;;0.40;0.40;;;;;;;9.74;82.97;99078.75;5015624;28;20256;-63
2023/04/05 09:53:08;;;;;;;0.60;0.60;;;;;;;9.66;82.85;99070.50;5017705;28;20202;-63
2023/04/05 09:55:35;;;;;;;0.40;0.40;;;;;;;9.70;84.33;99072.03;5013215;28;20614;-63
2023/04/05 09:58:02;;;;;;;0.60;0.60;;;;;;;9.69;83.52;99075.50;5015832;28;20198;-63
2023/04/05 10:00:31;;;;;;;1.20;1.20;;;;;;;9.67;84.18;99067.88;5017035;28;20218;-63
2023/04/05 10:02:57;;;;;;;0.60;0.60;;;;;;;9.59;85.96;99046.81;5018514;28;20324;-63
2023/04/05 10:05:27;;;;;;;0.57;0.57;;;;;;;9.64;84.84;99051.78;5017825;28;20264;-63
2023/04/05 10:07:55;;;;;;;0.47;0.47;;;;;;;9.86;84.12;99065.53;5015799;28;20209;-63
2023/04/05 10:10:23;;;;;;;0.60;0.60;;;;;;;9.90;82.84;99072.25;5024739;28;20632;-63
2023/04/05 10:12:50;;;;;;;0.50;0.50;;;;;;;10.00;83.64;99071.06;5026922;28;20201;-63
2023/04/05 10:15:18;;;;;;;0.60;0.60;;;;;;;9.98;81.89;99067.72;5012422;28;20205;-63
2023/04/05 10:17:54;;;;;;;0.50;0.50;;;;;;;9.97;81.42;99077.13;5014304;28;20220;-63
2023/04/05 10:20:22;;;;;;;0.60;0.60;;;;;;;9.99;84.52;99077.06;5010159;28;20288;-63
2023/04/05 10:23:00;;;;;;;0.40;0.40;;;;;;;10.08;84.83;99068.25;5010812;28;20212;-63
2023/04/05 10:25:36;;;;;;;0.60;0.60;;;;;;;9.94;82.28;99071.28;5011766;28;20260;-63
2023/04/05 10:28:05;;;;;;;0.50;0.50;;;;;;;9.89;83.28;99073.13;5010887;28;20582;-63
2023/04/05 10:30:36;;;;;;;0.57;0.57;;;;;;;9.94;83.32;99072.09;5013934;28;20209;-63
2023/04/05 10:33:13;;;;;;;0.50;0.50;;;;;;;10.11;83.51;99071.56;5016182;28;20301;-63
2023/04/05 10:35:54;;;;;;;0.30;0.30;;;;;;;10.14;82.05;99076.59;5010703;28;20201;-67
2023/04/05 10:38:25;;;;;;;0.53;0.53;;;;;;;10.12;81.11;99085.16;5017019;28;20671;-63
2023/04/05 10:40:55;;;;;;;0.50;0.50;;;;;;;10.06;81.25;99085.38;5019247;28;20758;-63
2023/04/05 10:43:25;;;;;;;0.70;0.70;;;;;;;10.01;82.59;99083.00;5020541;28;20205;-63
2023/04/05 10:45:54;;;;;;;0.50;0.50;;;;;;;10.05;81.91;99078.59;5025122;28;20214;-62
2023/04/05 10:48:34;;;;;;;0.50;0.50;;;;;;;9.98;80.94;99083.09;5017997;28;20901;-64
2023/04/05 10:51:01;;;;;;;0.70;0.70;;;;;;;9.92;83.01;99088.38;5018554;28;20209;-64
2023/04/05 10:53:31;;;;;;;0.50;0.50;;;;;;;9.85;81.30;99081.81;5027878;28;20213;-64
2023/04/05 10:56:00;;;;;;;0.50;0.50;;;;;;;9.82;82.93;99092.16;5018249;28;20362;-64
2023/04/05 10:58:28;;;;;;;0.47;0.47;;;;;;;9.79;84.48;99087.13;5016323;28;20198;-63
2023/04/05 11:00:56;;;;;;;0.90;0.90;;;;;;;9.78;82.93;99091.41;5025563;28;20228;-64
2023/04/05 11:03:46;;;;;;;0.57;0.57;;;;;;;9.86;83.93;99088.59;5022539;28;20236;-65
2023/04/05 11:06:20;;;;;;;0.40;0.40;;;;;;;9.72;84.43;99073.69;5029309;28;20251;-64
2023/04/05 11:08:49;;;;;;;0.50;0.50;;;;;;;9.86;80.85;99098.81;5030181;28;20343;-64
2023/04/05 11:11:18;;;;;;;0.50;0.50;;;;;;;9.72;80.30;99101.00;5031503;28;20216;-64
2023/04/05 11:13:50;;;;;;;0.43;0.43;;;;;;;9.65;81.50;99100.38;5031985;28;20208;-64
2023/04/05 11:16:16;;;;;;;0.40;0.40;;;;;;;9.61;80.04;99090.25;5029465;28;20229;-63
2023/04/05 11:18:49;;;;;;;0.50;0.50;;;;;;;9.64;82.41;99091.00;5030457;28;20213;-64
2023/04/05 11:21:24;;;;;;;0.50;0.50;;;;;;;9.61;80.55;99085.97;5032277;28;20293;-63
2023/04/05 11:24:05;;;;;;;0.50;0.50;;;;;;;9.53;80.29;99087.94;5029027;28;20208;-63
2023/04/05 11:26:54;;;;;;;0.60;0.60;;;;;;;9.50;81.27;99086.31;5031797;28;20260;-64
2023/04/05 11:29:53;;;;;;;0.57;0.57;;;;;;;9.46;80.64;99092.41;5031515;28;20232;-64
2023/04/05 11:32:20;;;;;;;0.60;0.60;;;;;;;9.37;80.15;99090.13;5027066;28;20788;-64
2023/04/05 11:35:00;;;;;;;0.50;0.50;;;;;;;9.12;80.14;99068.72;5031986;28;20601;-64
2023/04/05 11:37:55;;;;;;;0.60;0.60;;;;;;;9.29;82.60;99091.25;5025873;28;20317;-67
2023/04/05 11:40:27;;;;;;;0.60;0.60;;;;;;;9.18;81.19;99083.88;5029791;28;20205;-64
2023/04/05 11:43:02;;;;;;;4.90;1.07;;;;;;;9.18;82.96;99091.56;5030373;28;20198;-64
2023/04/05 11:45:30;;;;;;;0.50;0.50;;;;;;;9.08;81.93;99077.34;5032095;28;20200;-63